sensor_id;sensor_type;location;lat;lon;timestamp;temperature;humidity
25963;DHT22;13760;52.588;13.406;2022-10-17T00:01:43;12.50;99.90
25963;DHT22;13760;52.588;13.406;2022-10-17T00:04:09;12.60;99.90
25963;DHT22;13760;52.588;13.406;2022-10-17T00:06:34;12.60;99.90
25963;DHT22;13760;52.588;13.406;2022-10-17T00:09:00;12.60;99.90
25963;DHT22;13760;52.588;13.406;2022-10-17T00:11:26;12.70;99.90
25963;DHT22;13760;52.588;13.406;2022-10-17T00:13:53;12.70;99.90
25963;DHT22;13760;52.588;13.406;2022-10-17T00:16:24;12.70;99.90
25963;DHT22;13760;52.588;13.406;2022-10-17T00:18:50;12.70;99.90
25963;DHT22;13760;52.588;13.406;2022-10-17T00:21:17;12.70;99.90
25963;DHT22;13760;52.588;13.406;2022-10-17T00:23:43;12.70;99.90
25963;DHT22;13760;52.588;13.406;2022-10-17T00:26:09;12.70;99.90
25963;DHT22;13760;52.588;13.406;2022-10-17T00:28:35;12.70;99.90
25963;DHT22;13760;52.588;13.406;2022-10-17T00:31:03;12.70;99.90
25963;DHT22;13760;52.588;13.406;2022-10-17T00:33:30;12.70;99.90
25963;DHT22;13760;52.588;13.406;2022-10-17T00:36:08;12.70;99.90
25963;DHT22;13760;52.588;13.406;2022-10-17T00:38:34;12.70;99.90
25963;DHT22;13760;52.588;13.406;2022-10-17T00:41:01;12.80;99.90
25963;DHT22;13760;52.588;13.406;2022-10-17T00:43:27;12.80;99.90
25963;DHT22;13760;52.588;13.406;2022-10-17T00:45:54;12.70;99.90
25963;DHT22;13760;52.588;13.406;2022-10-17T00:48:21;12.80;99.90
25963;DHT22;13760;52.588;13.406;2022-10-17T00:50:49;12.80;99.90
25963;DHT22;13760;52.588;13.406;2022-10-17T00:53:15;12.70;99.90
25963;DHT22;13760;52.588;13.406;2022-10-17T00:55:50;12.70;99.90
25963;DHT22;13760;52.588;13.406;2022-10-17T00:58:18;12.80;99.90
25963;DHT22;13760;52.588;13.406;2022-10-17T01:00:46;12.70;99.90
25963;DHT22;13760;52.588;13.406;2022-10-17T01:03:12;12.80;99.90
25963;DHT22;13760;52.588;13.406;2022-10-17T01:05:39;12.80;99.90
25963;DHT22;13760;52.588;13.406;2022-10-17T01:08:05;12.80;99.90
25963;DHT22;13760;52.588;13.406;2022-10-17T01:11:04;12.80;99.90
25963;DHT22;13760;52.588;13.406;2022-10-17T01:16:55;12.80;99.90
25963;DHT22;13760;52.588;13.406;2022-10-17T01:19:40;12.90;99.90
25963;DHT22;13760;52.588;13.406;2022-10-17T01:22:30;12.90;99.90
25963;DHT22;13760;52.588;13.406;2022-10-17T01:25:27;12.90;99.90
25963;DHT22;13760;52.588;13.406;2022-10-17T01:28:18;12.80;99.90
25963;DHT22;13760;52.588;13.406;2022-10-17T01:31:17;12.80;99.90
25963;DHT22;13760;52.588;13.406;2022-10-17T01:36:49;12.70;99.90
25963;DHT22;13760;52.588;13.406;2022-10-17T01:42:34;12.60;99.90
25963;DHT22;13760;52.588;13.406;2022-10-17T01:45:18;12.60;99.90
25963;DHT22;13760;52.588;13.406;2022-10-17T01:47:46;12.60;99.90
25963;DHT22;13760;52.588;13.406;2022-10-17T01:50:27;12.60;99.90
25963;DHT22;13760;52.588;13.406;2022-10-17T01:52:58;12.60;99.90
25963;DHT22;13760;52.588;13.406;2022-10-17T01:55:32;12.60;99.90
25963;DHT22;13760;52.588;13.406;2022-10-17T01:58:05;12.50;99.90
25963;DHT22;13760;52.588;13.406;2022-10-17T02:00:34;12.50;99.90
25963;DHT22;13760;52.588;13.406;2022-10-17T02:03:08;12.50;99.90
25963;DHT22;13760;52.588;13.406;2022-10-17T02:05:40;12.40;99.90
25963;DHT22;13760;52.588;13.406;2022-10-17T02:08:07;12.40;99.90
25963;DHT22;13760;52.588;13.406;2022-10-17T02:10:52;12.40;99.90
25963;DHT22;13760;52.588;13.406;2022-10-17T02:13:38;12.30;99.90
25963;DHT22;13760;52.588;13.406;2022-10-17T02:16:35;12.30;99.90
25963;DHT22;13760;52.588;13.406;2022-10-17T02:19:45;12.20;99.90
25963;DHT22;13760;52.588;13.406;2022-10-17T02:27:53;12.10;99.90
25963;DHT22;13760;52.588;13.406;2022-10-17T02:30:41;12.10;99.90
25963;DHT22;13760;52.588;13.406;2022-10-17T02:33:14;12.10;99.90
25963;DHT22;13760;52.588;13.406;2022-10-17T02:35:46;12.10;99.90
25963;DHT22;13760;52.588;13.406;2022-10-17T02:38:14;12.00;99.90
25963;DHT22;13760;52.588;13.406;2022-10-17T02:40:41;12.10;99.90
25963;DHT22;13760;52.588;13.406;2022-10-17T02:43:08;12.10;99.90
25963;DHT22;13760;52.588;13.406;2022-10-17T02:45:36;12.20;99.90
25963;DHT22;13760;52.588;13.406;2022-10-17T02:48:08;12.20;99.90
25963;DHT22;13760;52.588;13.406;2022-10-17T02:50:50;12.20;99.90
25963;DHT22;13760;52.588;13.406;2022-10-17T02:53:22;12.30;99.90
25963;DHT22;13760;52.588;13.406;2022-10-17T02:55:55;12.30;99.90
25963;DHT22;13760;52.588;13.406;2022-10-17T02:58:25;12.30;99.90
25963;DHT22;13760;52.588;13.406;2022-10-17T03:00:53;12.40;99.90
25963;DHT22;13760;52.588;13.406;2022-10-17T03:03:23;12.40;99.90
25963;DHT22;13760;52.588;13.406;2022-10-17T03:05:49;12.40;99.90
25963;DHT22;13760;52.588;13.406;2022-10-17T03:08:14;12.50;99.90
25963;DHT22;13760;52.588;13.406;2022-10-17T03:10:40;12.50;99.90
25963;DHT22;13760;52.588;13.406;2022-10-17T03:13:06;12.50;99.90
25963;DHT22;13760;52.588;13.406;2022-10-17T03:15:31;12.60;99.90
25963;DHT22;13760;52.588;13.406;2022-10-17T03:17:57;12.60;99.90
25963;DHT22;13760;52.588;13.406;2022-10-17T03:20:22;12.60;99.90
25963;DHT22;13760;52.588;13.406;2022-10-17T03:22:48;12.60;99.90
25963;DHT22;13760;52.588;13.406;2022-10-17T03:25:13;12.60;99.90
25963;DHT22;13760;52.588;13.406;2022-10-17T03:27:39;12.60;99.90
25963;DHT22;13760;52.588;13.406;2022-10-17T03:30:05;12.60;99.90
25963;DHT22;13760;52.588;13.406;2022-10-17T03:32:32;12.60;99.90
25963;DHT22;13760;52.588;13.406;2022-10-17T03:34:58;12.60;99.90
25963;DHT22;13760;52.588;13.406;2022-10-17T03:37:24;12.60;99.90
25963;DHT22;13760;52.588;13.406;2022-10-17T03:39:49;12.60;99.90
25963;DHT22;13760;52.588;13.406;2022-10-17T03:42:15;12.60;99.90
25963;DHT22;13760;52.588;13.406;2022-10-17T03:44:45;12.60;99.90
25963;DHT22;13760;52.588;13.406;2022-10-17T03:47:12;12.60;99.90
25963;DHT22;13760;52.588;13.406;2022-10-17T03:49:37;12.60;99.90
25963;DHT22;13760;52.588;13.406;2022-10-17T03:52:03;12.60;99.90
25963;DHT22;13760;52.588;13.406;2022-10-17T03:54:28;12.70;99.90
25963;DHT22;13760;52.588;13.406;2022-10-17T03:56:54;12.60;99.90
25963;DHT22;13760;52.588;13.406;2022-10-17T03:59:20;12.60;99.90
25963;DHT22;13760;52.588;13.406;2022-10-17T04:01:45;12.60;99.90
25963;DHT22;13760;52.588;13.406;2022-10-17T04:04:11;12.70;99.90
25963;DHT22;13760;52.588;13.406;2022-10-17T04:06:36;12.70;99.90
25963;DHT22;13760;52.588;13.406;2022-10-17T04:09:03;12.70;99.90
25963;DHT22;13760;52.588;13.406;2022-10-17T04:11:29;12.80;99.90
25963;DHT22;13760;52.588;13.406;2022-10-17T04:13:55;12.80;99.90
25963;DHT22;13760;52.588;13.406;2022-10-17T04:16:22;12.80;99.90
25963;DHT22;13760;52.588;13.406;2022-10-17T04:18:55;12.80;99.90
25963;DHT22;13760;52.588;13.406;2022-10-17T04:21:22;12.80;99.90
25963;DHT22;13760;52.588;13.406;2022-10-17T04:23:52;12.90;99.90
25963;DHT22;13760;52.588;13.406;2022-10-17T04:26:31;12.90;99.90
25963;DHT22;13760;52.588;13.406;2022-10-17T04:29:06;12.90;99.90
25963;DHT22;13760;52.588;13.406;2022-10-17T04:31:32;12.90;99.90
25963;DHT22;13760;52.588;13.406;2022-10-17T04:33:59;12.90;99.90
25963;DHT22;13760;52.588;13.406;2022-10-17T04:36:25;12.90;99.90
25963;DHT22;13760;52.588;13.406;2022-10-17T04:38:59;12.90;99.90
25963;DHT22;13760;52.588;13.406;2022-10-17T04:41:29;12.80;99.90
25963;DHT22;13760;52.588;13.406;2022-10-17T04:43:55;12.80;99.90
25963;DHT22;13760;52.588;13.406;2022-10-17T04:46:20;12.80;99.90
25963;DHT22;13760;52.588;13.406;2022-10-17T04:48:46;12.80;99.90
25963;DHT22;13760;52.588;13.406;2022-10-17T04:51:13;12.80;99.90
25963;DHT22;13760;52.588;13.406;2022-10-17T04:53:41;12.70;99.90
25963;DHT22;13760;52.588;13.406;2022-10-17T04:58:37;12.70;99.90
25963;DHT22;13760;52.588;13.406;2022-10-17T05:01:05;12.70;99.90
25963;DHT22;13760;52.588;13.406;2022-10-17T05:03:31;12.60;99.90
25963;DHT22;13760;52.588;13.406;2022-10-17T05:05:56;12.60;99.90
25963;DHT22;13760;52.588;13.406;2022-10-17T05:08:22;12.60;99.90
25963;DHT22;13760;52.588;13.406;2022-10-17T05:10:47;12.60;99.90
25963;DHT22;13760;52.588;13.406;2022-10-17T05:13:13;12.60;99.90
25963;DHT22;13760;52.588;13.406;2022-10-17T05:15:39;12.60;99.90
25963;DHT22;13760;52.588;13.406;2022-10-17T05:18:05;12.60;99.90
25963;DHT22;13760;52.588;13.406;2022-10-17T05:20:31;12.60;99.90
25963;DHT22;13760;52.588;13.406;2022-10-17T05:23:01;12.70;99.90
25963;DHT22;13760;52.588;13.406;2022-10-17T05:25:26;12.70;99.90
25963;DHT22;13760;52.588;13.406;2022-10-17T05:27:55;12.80;99.90
25963;DHT22;13760;52.588;13.406;2022-10-17T05:30:21;12.90;99.90
25963;DHT22;13760;52.588;13.406;2022-10-17T05:32:55;12.90;99.90
25963;DHT22;13760;52.588;13.406;2022-10-17T05:35:22;13.00;99.90
25963;DHT22;13760;52.588;13.406;2022-10-17T05:37:54;13.00;99.90
25963;DHT22;13760;52.588;13.406;2022-10-17T05:40:47;13.10;99.90
25963;DHT22;13760;52.588;13.406;2022-10-17T05:43:23;13.10;99.90
25963;DHT22;13760;52.588;13.406;2022-10-17T05:46:09;13.10;99.90
25963;DHT22;13760;52.588;13.406;2022-10-17T05:48:56;13.10;99.90
25963;DHT22;13760;52.588;13.406;2022-10-17T05:55:09;13.20;99.90
25963;DHT22;13760;52.588;13.406;2022-10-17T05:57:35;13.20;99.90
25963;DHT22;13760;52.588;13.406;2022-10-17T06:00:00;13.30;99.90
25963;DHT22;13760;52.588;13.406;2022-10-17T06:02:26;13.30;99.90
25963;DHT22;13760;52.588;13.406;2022-10-17T06:04:52;13.30;99.90
25963;DHT22;13760;52.588;13.406;2022-10-17T06:07:17;13.30;99.90
25963;DHT22;13760;52.588;13.406;2022-10-17T06:09:43;13.40;99.90
25963;DHT22;13760;52.588;13.406;2022-10-17T06:12:08;13.40;99.90
25963;DHT22;13760;52.588;13.406;2022-10-17T06:14:34;13.40;99.90
25963;DHT22;13760;52.588;13.406;2022-10-17T06:16:59;13.50;99.90
25963;DHT22;13760;52.588;13.406;2022-10-17T06:19:25;13.40;99.90
25963;DHT22;13760;52.588;13.406;2022-10-17T06:21:51;13.50;99.90
25963;DHT22;13760;52.588;13.406;2022-10-17T06:24:16;13.60;99.90
25963;DHT22;13760;52.588;13.406;2022-10-17T06:26:42;13.60;99.90
25963;DHT22;13760;52.588;13.406;2022-10-17T06:29:11;13.60;99.90
25963;DHT22;13760;52.588;13.406;2022-10-17T06:31:37;13.60;99.90
25963;DHT22;13760;52.588;13.406;2022-10-17T06:34:03;13.60;99.90
25963;DHT22;13760;52.588;13.406;2022-10-17T06:36:28;13.70;99.90
25963;DHT22;13760;52.588;13.406;2022-10-17T06:38:54;13.70;99.90
25963;DHT22;13760;52.588;13.406;2022-10-17T06:41:20;13.80;99.90
25963;DHT22;13760;52.588;13.406;2022-10-17T06:43:46;13.80;99.90
25963;DHT22;13760;52.588;13.406;2022-10-17T06:46:26;13.90;99.90
25963;DHT22;13760;52.588;13.406;2022-10-17T06:48:54;14.00;99.90
25963;DHT22;13760;52.588;13.406;2022-10-17T06:51:26;14.00;99.90
25963;DHT22;13760;52.588;13.406;2022-10-17T06:53:51;14.00;99.90
25963;DHT22;13760;52.588;13.406;2022-10-17T06:56:17;14.00;99.90
25963;DHT22;13760;52.588;13.406;2022-10-17T06:58:43;14.10;99.90
25963;DHT22;13760;52.588;13.406;2022-10-17T07:01:12;14.10;99.90
25963;DHT22;13760;52.588;13.406;2022-10-17T07:03:38;14.20;99.90
25963;DHT22;13760;52.588;13.406;2022-10-17T07:06:05;14.20;99.90
25963;DHT22;13760;52.588;13.406;2022-10-17T07:08:30;14.30;99.90
25963;DHT22;13760;52.588;13.406;2022-10-17T07:10:56;14.40;99.90
25963;DHT22;13760;52.588;13.406;2022-10-17T07:13:22;14.50;99.90
25963;DHT22;13760;52.588;13.406;2022-10-17T07:15:48;14.50;99.90
25963;DHT22;13760;52.588;13.406;2022-10-17T07:18:14;14.60;99.90
25963;DHT22;13760;52.588;13.406;2022-10-17T07:20:40;14.70;99.90
25963;DHT22;13760;52.588;13.406;2022-10-17T07:23:06;14.80;99.90
25963;DHT22;13760;52.588;13.406;2022-10-17T07:25:31;14.80;99.90
25963;DHT22;13760;52.588;13.406;2022-10-17T07:27:57;14.90;99.90
25963;DHT22;13760;52.588;13.406;2022-10-17T07:30:23;15.00;99.90
25963;DHT22;13760;52.588;13.406;2022-10-17T07:32:52;15.10;99.90
25963;DHT22;13760;52.588;13.406;2022-10-17T07:35:18;15.10;99.90
25963;DHT22;13760;52.588;13.406;2022-10-17T07:37:44;15.20;99.90
25963;DHT22;13760;52.588;13.406;2022-10-17T07:40:10;15.20;99.90
25963;DHT22;13760;52.588;13.406;2022-10-17T07:42:36;15.30;99.90
25963;DHT22;13760;52.588;13.406;2022-10-17T07:45:01;15.40;99.90
25963;DHT22;13760;52.588;13.406;2022-10-17T07:47:27;15.40;99.90
25963;DHT22;13760;52.588;13.406;2022-10-17T07:49:55;15.50;99.90
25963;DHT22;13760;52.588;13.406;2022-10-17T07:52:21;15.60;99.90
25963;DHT22;13760;52.588;13.406;2022-10-17T07:54:46;15.70;99.90
25963;DHT22;13760;52.588;13.406;2022-10-17T07:57:12;15.80;99.90
25963;DHT22;13760;52.588;13.406;2022-10-17T07:59:40;15.90;99.90
25963;DHT22;13760;52.588;13.406;2022-10-17T08:02:07;16.00;99.90
25963;DHT22;13760;52.588;13.406;2022-10-17T08:04:33;16.10;99.90
25963;DHT22;13760;52.588;13.406;2022-10-17T08:07:00;16.20;99.90
25963;DHT22;13760;52.588;13.406;2022-10-17T08:09:26;16.30;99.90
25963;DHT22;13760;52.588;13.406;2022-10-17T08:11:51;16.40;99.90
25963;DHT22;13760;52.588;13.406;2022-10-17T08:14:18;16.50;99.90
25963;DHT22;13760;52.588;13.406;2022-10-17T08:16:45;16.60;99.90
25963;DHT22;13760;52.588;13.406;2022-10-17T08:19:10;16.70;99.90
25963;DHT22;13760;52.588;13.406;2022-10-17T08:21:37;16.80;99.90
25963;DHT22;13760;52.588;13.406;2022-10-17T08:24:03;16.90;99.90
25963;DHT22;13760;52.588;13.406;2022-10-17T08:26:29;17.00;99.90
25963;DHT22;13760;52.588;13.406;2022-10-17T08:28:55;17.10;99.90
25963;DHT22;13760;52.588;13.406;2022-10-17T08:31:21;17.20;99.90
25963;DHT22;13760;52.588;13.406;2022-10-17T08:33:48;17.30;99.90
25963;DHT22;13760;52.588;13.406;2022-10-17T08:36:18;17.40;99.90
25963;DHT22;13760;52.588;13.406;2022-10-17T08:38:44;17.40;99.90
25963;DHT22;13760;52.588;13.406;2022-10-17T08:46:22;17.60;99.90
25963;DHT22;13760;52.588;13.406;2022-10-17T08:48:53;17.70;99.90
25963;DHT22;13760;52.588;13.406;2022-10-17T08:51:22;17.80;99.90
25963;DHT22;13760;52.588;13.406;2022-10-17T08:54:05;17.90;99.90
25963;DHT22;13760;52.588;13.406;2022-10-17T08:56:42;17.90;99.90
25963;DHT22;13760;52.588;13.406;2022-10-17T08:59:13;18.00;99.90
25963;DHT22;13760;52.588;13.406;2022-10-17T09:05:02;18.20;99.90
25963;DHT22;13760;52.588;13.406;2022-10-17T09:07:38;18.30;99.90
25963;DHT22;13760;52.588;13.406;2022-10-17T09:12:52;18.40;99.90
25963;DHT22;13760;52.588;13.406;2022-10-17T09:20:37;18.60;99.90
25963;DHT22;13760;52.588;13.406;2022-10-17T09:25:48;18.80;99.90
25963;DHT22;13760;52.588;13.406;2022-10-17T09:28:23;18.90;99.90
25963;DHT22;13760;52.588;13.406;2022-10-17T09:31:00;18.90;99.90
25963;DHT22;13760;52.588;13.406;2022-10-17T09:33:32;19.00;99.90
25963;DHT22;13760;52.588;13.406;2022-10-17T09:35:59;19.10;99.90
25963;DHT22;13760;52.588;13.406;2022-10-17T09:38:37;19.20;99.90
25963;DHT22;13760;52.588;13.406;2022-10-17T09:41:03;19.30;99.90
25963;DHT22;13760;52.588;13.406;2022-10-17T09:43:28;19.40;99.90
25963;DHT22;13760;52.588;13.406;2022-10-17T09:46:07;19.40;99.90
25963;DHT22;13760;52.588;13.406;2022-10-17T09:48:41;19.50;99.90
25963;DHT22;13760;52.588;13.406;2022-10-17T09:51:08;19.50;99.90
25963;DHT22;13760;52.588;13.406;2022-10-17T09:53:39;19.60;99.90
25963;DHT22;13760;52.588;13.406;2022-10-17T09:56:10;19.70;99.90
25963;DHT22;13760;52.588;13.406;2022-10-17T09:58:48;19.70;99.90
25963;DHT22;13760;52.588;13.406;2022-10-17T10:01:28;19.80;99.90
25963;DHT22;13760;52.588;13.406;2022-10-17T10:04:10;20.00;99.90
25963;DHT22;13760;52.588;13.406;2022-10-17T10:06:36;20.00;99.90
25963;DHT22;13760;52.588;13.406;2022-10-17T10:09:02;20.10;99.90
25963;DHT22;13760;52.588;13.406;2022-10-17T10:11:50;20.20;99.90
25963;DHT22;13760;52.588;13.406;2022-10-17T10:14:36;20.30;99.90
25963;DHT22;13760;52.588;13.406;2022-10-17T10:17:08;20.40;99.90
25963;DHT22;13760;52.588;13.406;2022-10-17T10:19:50;20.50;99.90
25963;DHT22;13760;52.588;13.406;2022-10-17T10:22:21;20.60;99.90
25963;DHT22;13760;52.588;13.406;2022-10-17T10:25:07;20.60;99.90
25963;DHT22;13760;52.588;13.406;2022-10-17T10:27:35;20.70;99.90
25963;DHT22;13760;52.588;13.406;2022-10-17T10:30:04;20.80;99.90
25963;DHT22;13760;52.588;13.406;2022-10-17T10:32:35;20.80;99.90
25963;DHT22;13760;52.588;13.406;2022-10-17T10:35:05;20.90;99.90
25963;DHT22;13760;52.588;13.406;2022-10-17T10:37:41;20.90;99.90
25963;DHT22;13760;52.588;13.406;2022-10-17T10:40:15;21.10;99.90
25963;DHT22;13760;52.588;13.406;2022-10-17T10:42:46;21.20;99.90
25963;DHT22;13760;52.588;13.406;2022-10-17T10:45:19;21.30;99.90
25963;DHT22;13760;52.588;13.406;2022-10-17T10:50:45;21.60;99.90
25963;DHT22;13760;52.588;13.406;2022-10-17T10:56:11;21.80;99.90
25963;DHT22;13760;52.588;13.406;2022-10-17T10:58:55;21.90;99.90
25963;DHT22;13760;52.588;13.406;2022-10-17T11:01:51;21.90;99.90
25963;DHT22;13760;52.588;13.406;2022-10-17T11:04:22;22.00;99.90
25963;DHT22;13760;52.588;13.406;2022-10-17T11:06:54;22.10;99.90
25963;DHT22;13760;52.588;13.406;2022-10-17T11:09:51;22.20;99.90
25963;DHT22;13760;52.588;13.406;2022-10-17T11:14:59;22.50;99.90
25963;DHT22;13760;52.588;13.406;2022-10-17T11:17:45;22.70;99.90
25963;DHT22;13760;52.588;13.406;2022-10-17T11:20:40;22.80;99.90
25963;DHT22;13760;52.588;13.406;2022-10-17T11:23:43;22.90;99.90
25963;DHT22;13760;52.588;13.406;2022-10-17T11:26:30;23.00;99.90
25963;DHT22;13760;52.588;13.406;2022-10-17T11:29:02;23.10;99.90
25963;DHT22;13760;52.588;13.406;2022-10-17T11:31:35;23.20;99.90
25963;DHT22;13760;52.588;13.406;2022-10-17T11:34:24;23.30;99.90
25963;DHT22;13760;52.588;13.406;2022-10-17T11:36:55;23.40;99.90
25963;DHT22;13760;52.588;13.406;2022-10-17T11:39:30;23.50;99.90
25963;DHT22;13760;52.588;13.406;2022-10-17T11:42:31;23.60;99.90
25963;DHT22;13760;52.588;13.406;2022-10-17T11:45:19;23.70;99.90
25963;DHT22;13760;52.588;13.406;2022-10-17T11:47:57;23.70;99.90
25963;DHT22;13760;52.588;13.406;2022-10-17T11:50:39;23.70;99.90
25963;DHT22;13760;52.588;13.406;2022-10-17T11:53:16;23.80;99.90
25963;DHT22;13760;52.588;13.406;2022-10-17T11:55:44;23.90;99.90
25963;DHT22;13760;52.588;13.406;2022-10-17T11:58:26;23.90;99.90
25963;DHT22;13760;52.588;13.406;2022-10-17T12:01:31;24.00;99.90
25963;DHT22;13760;52.588;13.406;2022-10-17T12:04:37;24.00;99.90
25963;DHT22;13760;52.588;13.406;2022-10-17T12:07:13;24.00;99.90
25963;DHT22;13760;52.588;13.406;2022-10-17T12:09:48;24.10;99.90
25963;DHT22;13760;52.588;13.406;2022-10-17T12:12:26;24.30;99.90
25963;DHT22;13760;52.588;13.406;2022-10-17T12:14:52;24.40;99.90
25963;DHT22;13760;52.588;13.406;2022-10-17T12:17:27;24.50;99.90
25963;DHT22;13760;52.588;13.406;2022-10-17T12:19:53;24.70;99.90
25963;DHT22;13760;52.588;13.406;2022-10-17T12:22:46;24.90;99.90
25963;DHT22;13760;52.588;13.406;2022-10-17T12:25:18;25.00;99.90
25963;DHT22;13760;52.588;13.406;2022-10-17T12:27:45;25.10;99.90
25963;DHT22;13760;52.588;13.406;2022-10-17T12:33:03;25.20;99.90
25963;DHT22;13760;52.588;13.406;2022-10-17T12:35:31;25.10;99.90
25963;DHT22;13760;52.588;13.406;2022-10-17T12:40:48;25.30;99.90
25963;DHT22;13760;52.588;13.406;2022-10-17T12:45:47;25.40;99.90
25963;DHT22;13760;52.588;13.406;2022-10-17T12:51:05;25.50;99.90
25963;DHT22;13760;52.588;13.406;2022-10-17T12:56:34;25.60;99.90
25963;DHT22;13760;52.588;13.406;2022-10-17T12:59:24;25.50;99.90
25963;DHT22;13760;52.588;13.406;2022-10-17T13:01:58;25.50;99.90
25963;DHT22;13760;52.588;13.406;2022-10-17T13:04:24;25.50;99.90
25963;DHT22;13760;52.588;13.406;2022-10-17T13:06:56;25.50;99.90
25963;DHT22;13760;52.588;13.406;2022-10-17T13:09:34;25.50;99.90
25963;DHT22;13760;52.588;13.406;2022-10-17T13:12:05;25.40;99.90
25963;DHT22;13760;52.588;13.406;2022-10-17T13:14:38;25.40;99.90
25963;DHT22;13760;52.588;13.406;2022-10-17T13:17:06;25.40;99.90
25963;DHT22;13760;52.588;13.406;2022-10-17T13:19:45;25.40;99.90
25963;DHT22;13760;52.588;13.406;2022-10-17T13:22:17;25.40;99.90
25963;DHT22;13760;52.588;13.406;2022-10-17T13:24:44;25.50;99.90
25963;DHT22;13760;52.588;13.406;2022-10-17T13:27:23;25.40;99.90
25963;DHT22;13760;52.588;13.406;2022-10-17T13:29:49;25.40;99.90
25963;DHT22;13760;52.588;13.406;2022-10-17T13:32:14;25.40;99.90
25963;DHT22;13760;52.588;13.406;2022-10-17T13:34:42;25.40;99.90
25963;DHT22;13760;52.588;13.406;2022-10-17T13:37:12;25.40;99.90
25963;DHT22;13760;52.588;13.406;2022-10-17T13:39:44;25.50;99.90
25963;DHT22;13760;52.588;13.406;2022-10-17T13:42:23;25.60;99.90
25963;DHT22;13760;52.588;13.406;2022-10-17T13:44:50;25.70;99.90
25963;DHT22;13760;52.588;13.406;2022-10-17T13:47:24;25.70;99.90
25963;DHT22;13760;52.588;13.406;2022-10-17T13:49:51;25.70;99.90
25963;DHT22;13760;52.588;13.406;2022-10-17T13:52:19;25.70;99.90
25963;DHT22;13760;52.588;13.406;2022-10-17T13:54:48;25.70;99.90
25963;DHT22;13760;52.588;13.406;2022-10-17T13:57:20;25.60;99.90
25963;DHT22;13760;52.588;13.406;2022-10-17T13:59:50;25.60;99.90
25963;DHT22;13760;52.588;13.406;2022-10-17T14:02:20;25.50;99.90
25963;DHT22;13760;52.588;13.406;2022-10-17T14:04:57;25.50;99.90
25963;DHT22;13760;52.588;13.406;2022-10-17T14:07:45;25.50;99.90
25963;DHT22;13760;52.588;13.406;2022-10-17T14:10:22;25.40;99.90
25963;DHT22;13760;52.588;13.406;2022-10-17T14:12:51;25.20;99.90
25963;DHT22;13760;52.588;13.406;2022-10-17T14:15:17;25.10;99.90
25963;DHT22;13760;52.588;13.406;2022-10-17T14:17:44;25.00;99.90
25963;DHT22;13760;52.588;13.406;2022-10-17T14:20:18;25.00;99.90
25963;DHT22;13760;52.588;13.406;2022-10-17T14:22:45;24.80;99.90
25963;DHT22;13760;52.588;13.406;2022-10-17T14:27:55;24.70;99.90
25963;DHT22;13760;52.588;13.406;2022-10-17T14:30:30;24.60;99.90
25963;DHT22;13760;52.588;13.406;2022-10-17T14:32:59;24.60;99.90
25963;DHT22;13760;52.588;13.406;2022-10-17T14:35:26;24.50;99.90
25963;DHT22;13760;52.588;13.406;2022-10-17T14:37:57;24.50;99.90
25963;DHT22;13760;52.588;13.406;2022-10-17T14:40:29;24.50;99.90
25963;DHT22;13760;52.588;13.406;2022-10-17T14:43:03;24.50;99.90
25963;DHT22;13760;52.588;13.406;2022-10-17T14:45:34;24.40;99.90
25963;DHT22;13760;52.588;13.406;2022-10-17T14:54:19;24.10;99.90
25963;DHT22;13760;52.588;13.406;2022-10-17T14:56:50;24.00;99.90
25963;DHT22;13760;52.588;13.406;2022-10-17T14:59:16;23.90;99.90
25963;DHT22;13760;52.588;13.406;2022-10-17T15:01:47;23.80;99.90
25963;DHT22;13760;52.588;13.406;2022-10-17T15:04:14;23.70;99.90
25963;DHT22;13760;52.588;13.406;2022-10-17T15:06:52;23.60;99.90
25963;DHT22;13760;52.588;13.406;2022-10-17T15:09:19;23.60;99.90
25963;DHT22;13760;52.588;13.406;2022-10-17T15:11:46;23.50;99.90
25963;DHT22;13760;52.588;13.406;2022-10-17T15:14:12;23.40;99.90
25963;DHT22;13760;52.588;13.406;2022-10-17T15:16:37;23.30;99.90
25963;DHT22;13760;52.588;13.406;2022-10-17T15:19:03;23.20;99.90
25963;DHT22;13760;52.588;13.406;2022-10-17T15:21:31;23.20;99.90
25963;DHT22;13760;52.588;13.406;2022-10-17T15:23:56;23.20;99.90
25963;DHT22;13760;52.588;13.406;2022-10-17T15:26:29;23.10;99.90
25963;DHT22;13760;52.588;13.406;2022-10-17T15:28:55;23.10;99.90
25963;DHT22;13760;52.588;13.406;2022-10-17T15:31:22;23.10;99.90
25963;DHT22;13760;52.588;13.406;2022-10-17T15:33:49;23.00;99.90
25963;DHT22;13760;52.588;13.406;2022-10-17T15:36:25;22.90;99.90
25963;DHT22;13760;52.588;13.406;2022-10-17T15:38:56;22.90;99.90
25963;DHT22;13760;52.588;13.406;2022-10-17T15:41:23;22.70;99.90
25963;DHT22;13760;52.588;13.406;2022-10-17T15:43:49;22.70;99.90
25963;DHT22;13760;52.588;13.406;2022-10-17T15:46:24;22.60;99.90
25963;DHT22;13760;52.588;13.406;2022-10-17T15:48:51;22.60;99.90
25963;DHT22;13760;52.588;13.406;2022-10-17T15:51:17;22.50;99.90
25963;DHT22;13760;52.588;13.406;2022-10-17T15:53:43;22.40;99.90
25963;DHT22;13760;52.588;13.406;2022-10-17T15:56:20;22.30;99.90
25963;DHT22;13760;52.588;13.406;2022-10-17T15:58:47;22.20;99.90
25963;DHT22;13760;52.588;13.406;2022-10-17T16:01:25;22.10;99.90
25963;DHT22;13760;52.588;13.406;2022-10-17T16:03:51;22.00;99.90
25963;DHT22;13760;52.588;13.406;2022-10-17T16:06:18;21.90;99.90
25963;DHT22;13760;52.588;13.406;2022-10-17T16:08:48;21.80;99.90
25963;DHT22;13760;52.588;13.406;2022-10-17T16:11:22;21.60;99.90
25963;DHT22;13760;52.588;13.406;2022-10-17T16:13:52;21.50;99.90
25963;DHT22;13760;52.588;13.406;2022-10-17T16:16:19;21.40;99.90
25963;DHT22;13760;52.588;13.406;2022-10-17T16:18:46;21.30;99.90
25963;DHT22;13760;52.588;13.406;2022-10-17T16:21:12;21.20;99.90
25963;DHT22;13760;52.588;13.406;2022-10-17T16:23:39;21.10;99.90
25963;DHT22;13760;52.588;13.406;2022-10-17T16:26:05;20.90;99.90
25963;DHT22;13760;52.588;13.406;2022-10-17T16:28:31;20.80;99.90
25963;DHT22;13760;52.588;13.406;2022-10-17T16:30:57;20.70;99.90
25963;DHT22;13760;52.588;13.406;2022-10-17T16:33:23;20.60;99.90
25963;DHT22;13760;52.588;13.406;2022-10-17T16:35:48;20.40;99.90
25963;DHT22;13760;52.588;13.406;2022-10-17T16:38:14;20.40;99.90
25963;DHT22;13760;52.588;13.406;2022-10-17T16:40:40;20.30;99.90
25963;DHT22;13760;52.588;13.406;2022-10-17T16:43:06;20.20;99.90
25963;DHT22;13760;52.588;13.406;2022-10-17T16:45:32;20.00;99.90
25963;DHT22;13760;52.588;13.406;2022-10-17T16:47:57;20.00;99.90
25963;DHT22;13760;52.588;13.406;2022-10-17T16:50:23;19.90;99.90